< < Back
Terminal Aerodrome Forecast


Current Version              Previous Versions:   1  2  3  4  5  6  7  8  9  

Terminal Aerodrome Forecast

810
FTUS42 KFFC 302325
TAFFTY
TAF
KFTY 302325Z 3100/3124 33010KT P6SM SKC
     FM310400 00000KT P6SM SKC
     FM311200 VRB03KT P6SM FEW200
     FM311800 20003KT P6SM BKN200=

Latest METAR

702
SAUS70 KWBC 311100 RRN
MTRFTY
METAR KFTY 311053Z 00000KT 10SM CLR M02/M07 A3033 RMK AO2 SLP275
T10171072


USA.gov is the U.S. government's official web portal to all federal, state and local government web resources and services.